Time;durP1;ratioP1;P1;durP2;ratioP2;P2;SDS_P1;SDS_P2;PMS_P1;PMS_P2;Temp;Humidity;BMP_temperature;BMP_pressure;BME280_temperature;BME280_humidity;BME280_pressure;Samples;Min_cycle;Max_cycle;Signal;HPM_P1;HPM_P2
2024/01/11 00:07:11;;;;;;;;;;;-5.10;99.90;;;;;;6728138;88;20102;-78
2024/01/11 00:17:12;;;;;;;;;;;-5.20;99.90;;;;;;6722674;88;20192;-78
2024/01/11 00:27:12;;;;;;;;;;;-5.20;99.90;;;;;;6726509;88;20120;-78
2024/01/11 00:37:13;;;;;;;;;;;-5.20;99.90;;;;;;6722403;88;20537;-78
2024/01/11 00:47:13;;;;;;;;;;;-5.20;99.90;;;;;;6726211;88;20054;-77
2024/01/11 00:57:14;;;;;;;;;;;-5.40;99.90;;;;;;6725480;88;20096;-77
2024/01/11 01:07:14;;;;;;;;;;;-5.40;99.90;;;;;;6726282;88;20546;-78
2024/01/11 01:17:14;;;;;;;;;;;-5.50;99.90;;;;;;6727038;88;20074;-78
2024/01/11 01:27:16;;;;;;;;;;;-5.40;99.90;;;;;;6733876;88;20095;-79
2024/01/11 01:37:16;;;;;;;;;;;-5.50;99.90;;;;;;6725970;88;20684;-78
2024/01/11 01:47:17;;;;;;;;;;;-5.60;99.90;;;;;;6725738;88;20071;-77
2024/01/11 01:57:18;;;;;;;;;;;-5.50;99.90;;;;;;6725469;88;20062;-77
2024/01/11 02:07:19;;;;;;;;;;;-5.60;99.90;;;;;;6725532;88;20115;-76
2024/01/11 02:17:20;;;;;;;;;;;-5.60;99.90;;;;;;6729014;88;20080;-77
2024/01/11 02:27:20;;;;;;;;;;;-5.40;99.90;;;;;;6729489;88;20222;-77
2024/01/11 02:37:21;;;;;;;;;;;-5.40;99.90;;;;;;6724264;88;20180;-76
2024/01/11 02:47:21;;;;;;;;;;;-5.80;99.90;;;;;;6725467;88;20071;-76
2024/01/11 02:57:22;;;;;;;;;;;-5.90;99.90;;;;;;6726070;88;20054;-76
2024/01/11 03:07:22;;;;;;;;;;;-5.90;99.90;;;;;;6726068;88;20063;-77
2024/01/11 03:17:23;;;;;;;;;;;-6.00;99.90;;;;;;6725791;88;20057;-77
2024/01/11 03:27:23;;;;;;;;;;;-6.00;99.90;;;;;;6725749;88;20054;-77
2024/01/11 03:37:24;;;;;;;;;;;-6.10;99.90;;;;;;6722358;88;20473;-77
2024/01/11 03:47:24;;;;;;;;;;;-6.20;99.90;;;;;;6728809;88;20071;-77
2024/01/11 03:57:24;;;;;;;;;;;-6.40;99.90;;;;;;6727752;88;20565;-77
2024/01/11 04:18:06;;;;;;;;;;;-6.40;99.90;;;;;;6761715;88;20115;-78
2024/01/11 04:28:07;;;;;;;;;;;-6.40;99.90;;;;;;6755752;88;20061;-76
2024/01/11 04:38:07;;;;;;;;;;;-6.50;99.90;;;;;;6754835;88;20130;-75
2024/01/11 04:48:08;;;;;;;;;;;-6.70;99.90;;;;;;6754769;88;20100;-75
2024/01/11 04:58:08;;;;;;;;;;;-6.80;99.90;;;;;;6778128;87;20104;-76
2024/01/11 05:08:08;;;;;;;;;;;-6.80;99.90;;;;;;6776894;87;20070;-76
2024/01/11 05:18:09;;;;;;;;;;;-6.70;99.90;;;;;;6768481;88;20642;-76
2024/01/11 05:28:10;;;;;;;;;;;-6.80;99.90;;;;;;6768158;88;20045;-75
2024/01/11 05:38:10;;;;;;;;;;;-6.60;99.90;;;;;;6764181;88;20528;-78
2024/01/11 05:48:11;;;;;;;;;;;-6.70;99.90;;;;;;6762622;88;20174;-76
2024/01/11 05:58:11;;;;;;;;;;;-6.70;99.90;;;;;;6756133;88;20093;-76
2024/01/11 06:08:12;;;;;;;;;;;-6.80;99.90;;;;;;6758895;88;20049;-75
2024/01/11 06:18:12;;;;;;;;;;;-6.80;99.90;;;;;;6756285;88;20093;-76
2024/01/11 06:28:13;;;;;;;;;;;-6.50;99.90;;;;;;6762819;88;20503;-76
2024/01/11 06:38:13;;;;;;;;;;;-6.60;99.90;;;;;;6758177;88;20066;-78
2024/01/11 06:48:14;;;;;;;;;;;-6.50;99.90;;;;;;6753888;88;20113;-77
2024/01/11 06:58:15;;;;;;;;;;;-6.60;99.90;;;;;;6756927;87;20058;-77
2024/01/11 07:08:16;;;;;;;;;;;-7.00;99.90;;;;;;6769771;87;20092;-76
2024/01/11 07:18:16;;;;;;;;;;;-7.10;99.90;;;;;;6754493;88;20509;-79
2024/01/11 07:28:17;;;;;;;;;;;-7.10;99.90;;;;;;6757188;88;20081;-77
2024/01/11 07:38:17;;;;;;;;;;;-7.00;99.90;;;;;;6763168;88;20500;-76
2024/01/11 07:48:18;;;;;;;;;;;-7.00;99.90;;;;;;6752519;88;20640;-75
2024/01/11 07:58:20;;;;;;;;;;;-6.90;99.90;;;;;;6767531;88;20113;-77
2024/01/11 08:08:21;;;;;;;;;;;-6.90;99.90;;;;;;6757282;88;20140;-77
2024/01/11 08:18:22;;;;;;;;;;;-7.00;99.90;;;;;;6738915;88;20076;-77
2024/01/11 08:28:22;;;;;;;;;;;-6.70;99.90;;;;;;6742770;88;20182;-78
2024/01/11 08:38:24;;;;;;;;;;;-6.40;99.90;;;;;;6740021;88;20179;-77
2024/01/11 08:48:24;;;;;;;;;;;-6.00;99.90;;;;;;6739928;88;20058;-79
2024/01/11 08:58:28;;;;;;;;;;;-5.70;99.90;;;;;;6753743;88;20094;-77
2024/01/11 09:08:29;;;;;;;;;;;-5.10;99.90;;;;;;6755628;87;20073;-78
2024/01/11 09:18:30;;;;;;;;;;;-4.70;99.90;;;;;;6769351;88;20040;-77
2024/01/11 09:28:31;;;;;;;;;;;-4.20;99.90;;;;;;6770624;88;20515;-76
2024/01/11 09:38:33;;;;;;;;;;;-3.70;99.90;;;;;;6761103;88;20041;-78
2024/01/11 09:48:34;;;;;;;;;;;-3.20;99.90;;;;;;6765476;88;20500;-77
2024/01/11 09:58:36;;;;;;;;;;;-2.80;99.90;;;;;;6756806;88;20049;-76
2024/01/11 10:08:57;;;;;;;;;;;-1.50;99.90;;;;;;6755026;77;20242;-78
2024/01/11 10:18:57;;;;;;;;;;;-1.40;99.90;;;;;;6781035;87;20044;-77
2024/01/11 10:29:02;;;;;;;;;;;0.10;99.90;;;;;;6770127;87;20057;-78
2024/01/11 10:39:06;;;;;;;;;;;0.60;99.90;;;;;;6768795;87;20079;-77
2024/01/11 10:49:07;;;;;;;;;;;1.00;99.90;;;;;;6767442;87;20083;-78
2024/01/11 10:59:07;;;;;;;;;;;2.50;99.90;;;;;;6776064;87;20061;-78
2024/01/11 11:09:09;;;;;;;;;;;2.90;99.90;;;;;;6771430;87;20074;-78
2024/01/11 11:19:09;;;;;;;;;;;3.70;99.90;;;;;;6719207;88;20060;-80
2024/01/11 11:29:10;;;;;;;;;;;3.90;99.90;;;;;;6718786;88;20047;-79
2024/01/11 11:39:13;;;;;;;;;;;4.20;99.90;;;;;;6708999;88;20554;-79
2024/01/11 11:49:14;;;;;;;;;;;4.70;99.90;;;;;;6708034;88;20082;-79
2024/01/11 11:59:14;;;;;;;;;;;4.60;99.90;;;;;;6711354;88;20516;-79
2024/01/11 12:09:18;;;;;;;;;;;4.80;99.60;;;;;;6712660;87;20682;-80
2024/01/11 12:19:18;;;;;;;;;;;4.50;99.50;;;;;;6699237;89;20088;-80
2024/01/11 12:29:19;;;;;;;;;;;4.40;99.90;;;;;;6646928;89;20037;-80
2024/01/11 12:39:22;;;;;;;;;;;5.10;99.70;;;;;;6644988;88;20533;-80
2024/01/11 12:49:22;;;;;;;;;;;4.80;99.90;;;;;;6642356;89;20057;-80
2024/01/11 12:59:25;;;;;;;;;;;5.90;99.60;;;;;;6694660;87;20070;-80
2024/01/11 13:09:25;;;;;;;;;;;7.00;98.80;;;;;;6712455;88;20086;-80
2024/01/11 13:19:26;;;;;;;;;;;7.50;97.70;;;;;;6718401;88;20133;-79
2024/01/11 13:29:26;;;;;;;;;;;5.80;99.60;;;;;;6710540;88;20130;-79
2024/01/11 13:39:27;;;;;;;;;;;6.60;98.20;;;;;;6709556;88;20079;-79
2024/01/11 13:49:27;;;;;;;;;;;7.40;98.00;;;;;;6709075;88;20136;-80
2024/01/11 13:59:28;;;;;;;;;;;7.90;97.00;;;;;;6718566;88;20126;-79
2024/01/11 14:09:29;;;;;;;;;;;7.90;96.90;;;;;;6711247;88;20059;-79
2024/01/11 14:19:29;;;;;;;;;;;6.90;97.90;;;;;;6709664;88;20083;-80
2024/01/11 14:29:29;;;;;;;;;;;6.30;98.50;;;;;;6712272;88;20073;-80
2024/01/11 14:39:30;;;;;;;;;;;5.20;99.80;;;;;;6711492;88;20590;-79
2024/01/11 14:49:30;;;;;;;;;;;4.50;99.90;;;;;;6710567;88;20151;-79
2024/01/11 14:59:32;;;;;;;;;;;3.90;99.90;;;;;;6713387;88;20055;-78
2024/01/11 15:09:34;;;;;;;;;;;3.20;99.90;;;;;;6694020;89;20080;-78
2024/01/11 15:19:34;;;;;;;;;;;2.80;99.90;;;;;;6717353;87;20070;-81
2024/01/11 15:29:34;;;;;;;;;;;1.80;99.90;;;;;;6720982;87;20105;-80
2024/01/11 15:39:35;;;;;;;;;;;1.30;99.90;;;;;;6720374;87;20072;-80
2024/01/11 15:49:37;;;;;;;;;;;1.00;99.90;;;;;;6718757;88;20055;-79
2024/01/11 15:59:37;;;;;;;;;;;0.60;99.90;;;;;;6718442;87;20073;-78
2024/01/11 16:09:38;;;;;;;;;;;0.30;99.90;;;;;;6727873;87;20576;-80
2024/01/11 16:19:39;;;;;;;;;;;0.10;99.90;;;;;;6732730;87;20048;-81
2024/01/11 16:29:40;;;;;;;;;;;-0.20;99.90;;;;;;6731518;87;20036;-83
2024/01/11 16:39:41;;;;;;;;;;;-0.40;99.90;;;;;;6732356;87;20091;-81
2024/01/11 16:49:42;;;;;;;;;;;-0.60;99.90;;;;;;6728523;87;20054;-78
2024/01/11 16:59:42;;;;;;;;;;;-0.70;99.90;;;;;;6723486;87;20560;-80
2024/01/11 17:09:43;;;;;;;;;;;-0.90;99.90;;;;;;6723409;87;20066;-78
2024/01/11 17:19:43;;;;;;;;;;;-1.00;99.90;;;;;;6713269;87;20052;-78
2024/01/11 17:29:43;;;;;;;;;;;-1.10;99.90;;;;;;6708514;87;20040;-79
2024/01/11 17:39:44;;;;;;;;;;;-1.30;99.90;;;;;;6714518;87;20907;-79
2024/01/11 17:49:44;;;;;;;;;;;-1.30;99.90;;;;;;6710341;87;20087;-78
2024/01/11 17:59:45;;;;;;;;;;;-1.40;99.90;;;;;;6726487;87;20126;-80
2024/01/11 18:09:45;;;;;;;;;;;-1.40;99.90;;;;;;6724997;88;20143;-80
2024/01/11 18:19:47;;;;;;;;;;;-1.50;99.90;;;;;;6725559;87;20047;-80
2024/01/11 18:29:47;;;;;;;;;;;-1.70;99.90;;;;;;6726633;88;20085;-79
2024/01/11 18:39:48;;;;;;;;;;;-1.70;99.90;;;;;;6679105;89;20076;-77
2024/01/11 18:49:48;;;;;;;;;;;-1.90;99.90;;;;;;6692291;88;20083;-78
2024/01/11 18:59:48;;;;;;;;;;;-2.00;99.90;;;;;;6710009;88;20077;-78
2024/01/11 19:09:49;;;;;;;;;;;-2.10;99.90;;;;;;6707449;88;20515;-77
2024/01/11 19:19:49;;;;;;;;;;;-2.10;99.90;;;;;;6690576;89;20063;-78
2024/01/11 19:29:50;;;;;;;;;;;-2.20;99.90;;;;;;6702067;87;20142;-79
2024/01/11 19:39:50;;;;;;;;;;;-2.40;99.90;;;;;;6701432;89;20161;-79
2024/01/11 19:49:51;;;;;;;;;;;-2.50;99.90;;;;;;6696305;89;20067;-78
2024/01/11 19:59:51;;;;;;;;;;;-2.50;99.90;;;;;;6695220;89;20064;-79
2024/01/11 20:09:52;;;;;;;;;;;-2.60;99.90;;;;;;6702910;87;20568;-80
2024/01/11 20:19:52;;;;;;;;;;;-2.60;99.90;;;;;;6700386;88;20563;-79
2024/01/11 20:29:52;;;;;;;;;;;-2.70;99.90;;;;;;6702190;89;20089;-80
2024/01/11 20:39:53;;;;;;;;;;;-2.70;99.90;;;;;;6700692;89;20579;-81
2024/01/11 21:00:05;;;;;;;;;;;-2.60;99.90;;;;;;6835561;76;32158;-78
2024/01/11 21:10:06;;;;;;;;;;;-2.70;99.90;;;;;;6710904;88;20164;-78
2024/01/11 21:20:07;;;;;;;;;;;-3.00;99.90;;;;;;6719047;88;20092;-78
2024/01/11 21:30:07;;;;;;;;;;;-2.90;99.90;;;;;;6702967;77;20098;-78
2024/01/11 21:40:08;;;;;;;;;;;-3.20;99.90;;;;;;6704836;88;20107;-78
2024/01/11 21:50:09;;;;;;;;;;;-3.30;99.90;;;;;;6704918;88;20102;-79
2024/01/11 22:00:10;;;;;;;;;;;-3.40;99.90;;;;;;6720957;88;20139;-76
2024/01/11 22:10:11;;;;;;;;;;;-3.40;99.90;;;;;;6720292;88;20082;-76
2024/01/11 22:20:11;;;;;;;;;;;-3.50;99.90;;;;;;6721340;88;20076;-76
2024/01/11 22:30:13;;;;;;;;;;;-3.60;99.90;;;;;;6705637;88;20102;-77
2024/01/11 22:40:14;;;;;;;;;;;-3.50;99.90;;;;;;6697983;88;20518;-77
2024/01/11 22:50:14;;;;;;;;;;;-3.50;99.90;;;;;;6701395;88;20072;-77
2024/01/11 23:00:20;;;;;;;;;;;-3.20;99.90;;;;;;6701228;88;20059;-76
2024/01/11 23:10:21;;;;;;;;;;;-3.10;99.90;;;;;;6706014;88;20078;-79
2024/01/11 23:20:21;;;;;;;;;;;-3.00;99.90;;;;;;6713454;88;20176;-77
2024/01/11 23:30:22;;;;;;;;;;;-2.80;99.90;;;;;;6700555;88;20102;-76
2024/01/11 23:40:22;;;;;;;;;;;-3.00;99.90;;;;;;6702180;88;20140;-78
2024/01/11 23:50:23;;;;;;;;;;;-2.80;99.90;;;;;;6700535;88;20066;-76
